Time;durP1;ratioP1;P1;durP2;ratioP2;P2;SDS_P1;SDS_P2;PMS_P1;PMS_P2;Temp;Humidity;BMP_temperature;BMP_pressure;BME280_temperature;BME280_humidity;BME280_pressure;Samples;Min_cycle;Max_cycle;Signal;HPM_P1;HPM_P2
2022/06/15 00:02:07;;;;;;;;;;;15.10;94.60;;;;;;5025023;28;19936;-78
2022/06/15 00:04:35;;;;;;;;;;;15.10;94.80;;;;;;5007852;28;19929;-77
2022/06/15 00:07:02;;;;;;;;;;;15.00;94.90;;;;;;5004318;28;19929;-77
2022/06/15 00:09:29;;;;;;;;;;;15.00;95.30;;;;;;5003185;28;19933;-77
2022/06/15 00:11:55;;;;;;;;;;;15.10;95.20;;;;;;5006322;28;19929;-77
2022/06/15 00:14:24;;;;;;;;;;;15.00;95.10;;;;;;5003179;28;19928;-77
2022/06/15 00:16:51;;;;;;;;;;;15.10;95.20;;;;;;5023234;28;19922;-77
2022/06/15 00:19:18;;;;;;;;;;;15.00;95.30;;;;;;5022650;28;19979;-78
2022/06/15 00:21:46;;;;;;;;;;;15.00;95.50;;;;;;5022452;28;19929;-77
2022/06/15 00:24:13;;;;;;;;;;;14.50;95.30;;;;;;5004211;28;19921;-77
2022/06/15 00:26:41;;;;;;;;;;;15.00;95.50;;;;;;5021296;28;20397;-77
2022/06/15 00:29:08;;;;;;;;;;;15.00;95.70;;;;;;5022993;28;19931;-77
2022/06/15 00:31:35;;;;;;;;;;;14.90;95.80;;;;;;5005420;28;19925;-77
2022/06/15 00:34:02;;;;;;;;;;;14.90;95.90;;;;;;5007659;28;20387;-78
2022/06/15 00:36:29;;;;;;;;;;;14.90;95.90;;;;;;5004376;28;19929;-78
2022/06/15 00:38:59;;;;;;;;;;;14.90;96.10;;;;;;5003764;28;19935;-77
2022/06/15 00:41:26;;;;;;;;;;;14.90;96.40;;;;;;5023164;28;19929;-77
2022/06/15 00:43:54;;;;;;;;;;;14.90;96.50;;;;;;5009430;28;19921;-77
2022/06/15 00:46:23;;;;;;;;;;;14.90;96.40;;;;;;5020627;28;19935;-77
2022/06/15 00:48:51;;;;;;;;;;;16.60;97.40;;;;;;5003004;28;19925;-77
2022/06/15 00:51:18;;;;;;;;;;;14.80;96.70;;;;;;5002733;28;19925;-77
2022/06/15 00:53:45;;;;;;;;;;;14.80;96.70;;;;;;5006753;28;19921;-78
2022/06/15 00:56:14;;;;;;;;;;;14.80;96.70;;;;;;5005721;28;19925;-76
2022/06/15 00:58:43;;;;;;;;;;;14.70;96.90;;;;;;5019798;28;19924;-77
2022/06/15 01:01:10;;;;;;;;;;;14.70;96.30;;;;;;5004479;28;19929;-77
2022/06/15 01:03:38;;;;;;;;;;;14.70;97.00;;;;;;5024071;28;19980;-77
2022/06/15 01:06:06;;;;;;;;;;;14.60;97.10;;;;;;5011536;28;19948;-77
2022/06/15 01:08:37;;;;;;;;;;;14.60;97.10;;;;;;5025355;28;19996;-76
2022/06/15 01:11:12;;;;;;;;;;;15.30;97.30;;;;;;5030085;28;19948;-78
2022/06/15 01:13:48;;;;;;;;;;;14.50;97.40;;;;;;5017927;28;19929;-77
2022/06/15 01:16:18;;;;;;;;;;;14.50;97.60;;;;;;5024570;28;19925;-76
2022/06/15 01:18:48;;;;;;;;;;;14.50;97.70;;;;;;5003845;28;19925;-76
2022/06/15 01:21:18;;;;;;;;;;;14.40;97.70;;;;;;4995236;28;19929;-77
2022/06/15 01:24:04;;;;;;;;;;;14.40;97.70;;;;;;5006372;28;19955;-77
2022/06/15 01:26:49;;;;;;;;;;;14.40;97.80;;;;;;5012064;28;19925;-77
2022/06/15 01:29:26;;;;;;;;;;;14.30;97.80;;;;;;5023785;28;19929;-78
2022/06/15 01:31:58;;;;;;;;;;;14.20;97.80;;;;;;5002180;28;19929;-78
2022/06/15 01:34:28;;;;;;;;;;;14.10;97.80;;;;;;5022348;28;19929;-77
2022/06/15 01:37:00;;;;;;;;;;;14.10;97.90;;;;;;5026513;28;19959;-77
2022/06/15 01:39:29;;;;;;;;;;;15.00;98.50;;;;;;5009829;28;19929;-78
2022/06/15 01:41:58;;;;;;;;;;;14.00;98.10;;;;;;5005585;28;19929;-77
2022/06/15 01:44:27;;;;;;;;;;;13.90;98.20;;;;;;5004426;28;19929;-77
2022/06/15 01:46:57;;;;;;;;;;;13.90;98.40;;;;;;5018777;28;19969;-80
2022/06/15 01:49:28;;;;;;;;;;;13.90;98.50;;;;;;5002060;28;19929;-78
2022/06/15 01:51:56;;;;;;;;;;;13.80;97.90;;;;;;5006225;28;20029;-79
2022/06/15 01:54:25;;;;;;;;;;;13.80;98.70;;;;;;5020399;28;19949;-79
2022/06/15 01:56:53;;;;;;;;;;;13.80;98.90;;;;;;5012937;28;20396;-80
2022/06/15 01:59:23;;;;;;;;;;;13.70;99.00;;;;;;5003720;28;19921;-79
2022/06/15 02:01:53;;;;;;;;;;;13.70;99.00;;;;;;5006899;28;20258;-78
2022/06/15 02:04:24;;;;;;;;;;;13.60;99.20;;;;;;5004264;28;20412;-79
2022/06/15 02:06:55;;;;;;;;;;;13.60;99.30;;;;;;5018027;28;19932;-79
2022/06/15 02:09:28;;;;;;;;;;;13.60;99.40;;;;;;5002856;28;20280;-78
2022/06/15 02:11:56;;;;;;;;;;;14.00;99.10;;;;;;5001732;28;20016;-80
2022/06/15 02:14:25;;;;;;;;;;;13.50;99.70;;;;;;5020861;28;19979;-79
2022/06/15 02:16:53;;;;;;;;;;;13.40;99.80;;;;;;5023741;28;20408;-77
2022/06/15 02:19:25;;;;;;;;;;;13.40;99.90;;;;;;5022770;28;19929;-76
2022/06/15 02:21:53;;;;;;;;;;;13.30;99.90;;;;;;5022331;28;19925;-76
2022/06/15 02:24:21;;;;;;;;;;;13.30;99.90;;;;;;5023729;28;19932;-76
2022/06/15 02:26:49;;;;;;;;;;;13.20;99.90;;;;;;5021648;28;19931;-78
2022/06/15 02:29:18;;;;;;;;;;;13.20;99.90;;;;;;5008499;28;20028;-77
2022/06/15 02:31:51;;;;;;;;;;;13.20;99.90;;;;;;5007291;28;19936;-77
2022/06/15 02:34:18;;;;;;;;;;;13.10;99.90;;;;;;5009074;28;20054;-78
2022/06/15 02:36:46;;;;;;;;;;;13.10;99.90;;;;;;5023783;28;19935;-77
2022/06/15 02:39:16;;;;;;;;;;;13.00;99.90;;;;;;5025593;28;19940;-77
2022/06/15 02:41:43;;;;;;;;;;;13.00;99.90;;;;;;5025271;28;19941;-77
2022/06/15 02:44:13;;;;;;;;;;;12.90;99.90;;;;;;5025669;28;19921;-77
2022/06/15 02:46:43;;;;;;;;;;;12.90;99.90;;;;;;5004862;28;20007;-77
2022/06/15 02:49:11;;;;;;;;;;;12.90;99.90;;;;;;5004345;28;19960;-76
2022/06/15 02:51:41;;;;;;;;;;;12.80;99.90;;;;;;5021611;28;20439;-77
2022/06/15 02:54:15;;;;;;;;;;;12.80;99.90;;;;;;5021416;28;19940;-76
2022/06/15 02:56:44;;;;;;;;;;;12.80;99.90;;;;;;5004776;28;19928;-78
2022/06/15 02:59:11;;;;;;;;;;;12.70;99.90;;;;;;5006170;28;19925;-77
2022/06/15 03:01:42;;;;;;;;;;;12.70;99.90;;;;;;5019307;28;20011;-78
2022/06/15 03:04:09;;;;;;;;;;;12.70;99.90;;;;;;5002261;28;20447;-78
2022/06/15 03:06:36;;;;;;;;;;;12.60;99.90;;;;;;5005897;28;20402;-78
2022/06/15 03:09:17;;;;;;;;;;;12.60;99.90;;;;;;5006412;28;19921;-78
2022/06/15 03:11:47;;;;;;;;;;;12.60;99.90;;;;;;5002694;28;20019;-77
2022/06/15 03:14:24;;;;;;;;;;;12.50;99.90;;;;;;5006638;28;20019;-78
2022/06/15 03:16:53;;;;;;;;;;;12.50;99.90;;;;;;5021873;28;19947;-83
2022/06/15 03:19:26;;;;;;;;;;;12.50;99.90;;;;;;5022946;28;19929;-85
2022/06/15 03:22:00;;;;;;;;;;;12.40;99.90;;;;;;5027998;28;19936;-80
2022/06/15 03:24:28;;;;;;;;;;;12.40;99.90;;;;;;5022435;28;19936;-79
2022/06/15 03:26:55;;;;;;;;;;;12.40;99.90;;;;;;5038890;28;19935;-78
2022/06/15 03:29:25;;;;;;;;;;;12.30;99.90;;;;;;5020906;28;19955;-79
2022/06/15 03:32:00;;;;;;;;;;;12.40;99.90;;;;;;5049502;28;19928;-84
2022/06/15 03:34:29;;;;;;;;;;;12.40;99.90;;;;;;5023561;28;19947;-86
2022/06/15 03:36:57;;;;;;;;;;;12.30;99.90;;;;;;5017307;28;20316;-82
2022/06/15 03:39:24;;;;;;;;;;;12.40;99.90;;;;;;5017731;28;19960;-80
2022/06/15 03:41:55;;;;;;;;;;;12.40;99.90;;;;;;5016859;28;19975;-80
2022/06/15 03:44:23;;;;;;;;;;;12.80;99.90;;;;;;5018382;28;19921;-80
2022/06/15 03:46:49;;;;;;;;;;;12.40;99.90;;;;;;5026306;28;19925;-89
2022/06/15 03:49:23;;;;;;;;;;;12.50;99.90;;;;;;5035869;28;19960;-81
2022/06/15 03:51:50;;;;;;;;;;;12.60;99.90;;;;;;5024691;28;19932;-89
2022/06/15 03:54:26;;;;;;;;;;;12.60;99.90;;;;;;5038135;28;19949;-89
2022/06/15 03:56:55;;;;;;;;;;;12.60;99.90;;;;;;5024840;28;19971;-82
2022/06/15 03:59:33;;;;;;;;;;;12.70;99.90;;;;;;5015797;28;19921;-80
2022/06/15 04:02:09;;;;;;;;;;;12.70;99.90;;;;;;5011705;28;20319;-79
2022/06/15 04:04:39;;;;;;;;;;;12.80;99.90;;;;;;5023878;28;20005;-81
2022/06/15 04:08:34;;;;;;;;;;;12.80;99.90;;;;;;5015528;28;20462;-79
2022/06/15 04:09:54;;;;;;;;;;;12.90;99.90;;;;;;5008134;28;19921;-81
2022/06/15 04:12:23;;;;;;;;;;;12.90;99.90;;;;;;5014691;28;20067;-81
2022/06/15 04:14:49;;;;;;;;;;;13.00;99.90;;;;;;5027079;28;19991;-80
2022/06/15 04:17:35;;;;;;;;;;;13.00;99.90;;;;;;5005137;28;19925;-85
2022/06/15 04:22:59;;;;;;;;;;;13.10;99.90;;;;;;5014162;28;19925;-79
2022/06/15 04:25:26;;;;;;;;;;;13.20;99.90;;;;;;5020426;28;19921;-80
2022/06/15 04:27:54;;;;;;;;;;;13.30;99.90;;;;;;5017071;28;19922;-82
2022/06/15 04:30:22;;;;;;;;;;;13.30;99.90;;;;;;5039328;28;19925;-86
2022/06/15 04:32:54;;;;;;;;;;;13.40;99.90;;;;;;5040470;28;19929;-83
2022/06/15 04:35:28;;;;;;;;;;;13.50;99.90;;;;;;5029652;28;19921;-84
2022/06/15 04:37:55;;;;;;;;;;;13.60;99.90;;;;;;5050024;28;20354;-83
2022/06/15 04:40:27;;;;;;;;;;;13.60;99.90;;;;;;5040610;28;19931;-84
2022/06/15 04:42:57;;;;;;;;;;;13.70;99.90;;;;;;5030624;28;20283;-85
2022/06/15 04:45:24;;;;;;;;;;;13.80;99.90;;;;;;5018540;28;19947;-82
2022/06/15 04:48:00;;;;;;;;;;;13.90;99.90;;;;;;5016402;28;19931;-80
2022/06/15 04:50:28;;;;;;;;;;;14.00;99.90;;;;;;5042653;28;19921;-81
2022/06/15 04:52:57;;;;;;;;;;;14.00;99.90;;;;;;5016393;28;20420;-81
2022/06/15 04:55:24;;;;;;;;;;;14.10;99.90;;;;;;5016951;28;20712;-82
2022/06/15 04:57:57;;;;;;;;;;;14.20;99.90;;;;;;5018419;28;19948;-83
2022/06/15 05:00:28;;;;;;;;;;;14.30;99.90;;;;;;5021876;28;20027;-82
2022/06/15 05:02:56;;;;;;;;;;;14.40;99.90;;;;;;5024030;28;19932;-84
2022/06/15 05:05:23;;;;;;;;;;;14.50;99.90;;;;;;5017463;28;19936;-85
2022/06/15 05:07:52;;;;;;;;;;;14.60;99.90;;;;;;5018513;28;19956;-84
2022/06/15 05:10:21;;;;;;;;;;;14.70;99.90;;;;;;5018952;28;20468;-84
2022/06/15 05:12:50;;;;;;;;;;;14.90;99.90;;;;;;5017368;28;20289;-84
2022/06/15 05:15:18;;;;;;;;;;;15.00;99.90;;;;;;5022107;28;19928;-81
2022/06/15 05:17:50;;;;;;;;;;;15.10;99.90;;;;;;5022343;28;19929;-83
2022/06/15 05:20:18;;;;;;;;;;;15.30;99.90;;;;;;5018008;28;19927;-84
2022/06/15 05:22:50;;;;;;;;;;;15.40;99.90;;;;;;5030195;28;19932;-81
2022/06/15 05:25:17;;;;;;;;;;;15.60;99.90;;;;;;5036628;28;19925;-82
2022/06/15 05:27:43;;;;;;;;;;;15.80;99.90;;;;;;5034204;28;19960;-82
2022/06/15 05:30:11;;;;;;;;;;;16.00;99.90;;;;;;5037492;28;19925;-83
2022/06/15 05:32:38;;;;;;;;;;;16.50;99.90;;;;;;5039093;28;20020;-83
2022/06/15 05:35:07;;;;;;;;;;;17.80;99.90;;;;;;5045084;28;19920;-81
2022/06/15 05:37:34;;;;;;;;;;;19.70;99.90;;;;;;5031647;28;19932;-82
2022/06/15 05:40:01;;;;;;;;;;;21.50;99.90;;;;;;5036510;28;19925;-81
2022/06/15 05:42:28;;;;;;;;;;;23.30;99.90;;;;;;5029431;28;19932;-82
2022/06/15 05:45:02;;;;;;;;;;;24.80;99.90;;;;;;5028960;28;19932;-82
2022/06/15 05:47:31;;;;;;;;;;;26.20;99.90;;;;;;5036815;28;19928;-82
2022/06/15 05:50:18;;;;;;;;;;;27.60;99.90;;;;;;5051720;28;20007;-83
2022/06/15 05:52:52;;;;;;;;;;;29.10;99.90;;;;;;5033731;28;19941;-83
2022/06/15 05:55:19;;;;;;;;;;;30.00;99.00;;;;;;5052330;28;19925;-83
2022/06/15 05:57:46;;;;;;;;;;;30.60;95.70;;;;;;5033384;28;19988;-82
2022/06/15 06:00:14;;;;;;;;;;;31.00;94.50;;;;;;5050343;28;19925;-80
2022/06/15 06:02:41;;;;;;;;;;;31.80;93.60;;;;;;5050575;28;19925;-82
2022/06/15 06:05:11;;;;;;;;;;;33.00;91.80;;;;;;5051312;28;19931;-81
2022/06/15 06:07:39;;;;;;;;;;;33.20;87.90;;;;;;5032145;28;19927;-82
2022/06/15 06:10:06;;;;;;;;;;;33.30;83.40;;;;;;5033449;28;19921;-81
2022/06/15 06:12:33;;;;;;;;;;;33.20;82.50;;;;;;5030090;28;20021;-81
2022/06/15 06:15:00;;;;;;;;;;;33.50;80.70;;;;;;5031218;28;19944;-81
2022/06/15 06:17:27;;;;;;;;;;;34.20;80.60;;;;;;5031484;28;19935;-82
2022/06/15 06:19:53;;;;;;;;;;;34.90;78.40;;;;;;5047064;28;19929;-81
2022/06/15 06:22:20;;;;;;;;;;;35.30;74.50;;;;;;5051817;28;19992;-81
2022/06/15 06:24:48;;;;;;;;;;;35.70;74.60;;;;;;5034439;28;20393;-81
2022/06/15 06:27:16;;;;;;;;;;;36.10;71.30;;;;;;5032751;28;19921;-81
2022/06/15 06:29:45;;;;;;;;;;;36.20;68.80;;;;;;5021009;28;19916;-79
2022/06/15 06:32:16;;;;;;;;;;;36.60;69.20;;;;;;4781100;28;20235;-79
2022/06/15 06:34:43;;;;;;;;;;;37.10;68.10;;;;;;4796917;28;20598;-78
2022/06/15 06:37:15;;;;;;;;;;;37.20;65.20;;;;;;4799698;28;20220;-79
2022/06/15 06:39:45;;;;;;;;;;;37.70;65.00;;;;;;4804845;28;20018;-79
2022/06/15 06:42:13;;;;;;;;;;;37.90;63.30;;;;;;4774484;28;19922;-79
2022/06/15 06:44:51;;;;;;;;;;;37.90;62.00;;;;;;4814378;28;19951;-79
2022/06/15 06:47:18;;;;;;;;;;;38.00;62.30;;;;;;4832964;28;20275;-80
2022/06/15 06:49:45;;;;;;;;;;;38.20;61.00;;;;;;4824305;28;20414;-82
2022/06/15 06:52:12;;;;;;;;;;;38.40;59.30;;;;;;5028046;28;19940;-79
2022/06/15 06:54:39;;;;;;;;;;;38.10;59.10;;;;;;5016868;28;20234;-81
2022/06/15 06:57:06;;;;;;;;;;;37.90;58.70;;;;;;5015547;28;19925;-81
2022/06/15 06:59:34;;;;;;;;;;;38.00;58.20;;;;;;5028243;28;19926;-80
2022/06/15 07:02:01;;;;;;;;;;;37.90;57.50;;;;;;5015063;28;19933;-82
2022/06/15 07:04:29;;;;;;;;;;;37.60;57.50;;;;;;5036725;28;19932;-82
2022/06/15 07:06:57;;;;;;;;;;;37.60;58.60;;;;;;5009951;28;19978;-82
2022/06/15 07:09:24;;;;;;;;;;;37.60;58.10;;;;;;5010393;28;19929;-82
2022/06/15 07:11:50;;;;;;;;;;;38.00;58.50;;;;;;5014087;28;19987;-81
2022/06/15 07:14:17;;;;;;;;;;;38.40;57.40;;;;;;5011926;28;19925;-82
2022/06/15 07:16:45;;;;;;;;;;;38.50;57.10;;;;;;5031051;28;21739;-82
2022/06/15 07:19:12;;;;;;;;;;;38.50;56.30;;;;;;5014192;28;19928;-82
2022/06/15 07:21:40;;;;;;;;;;;38.60;56.40;;;;;;5013849;28;19920;-81
2022/06/15 07:24:07;;;;;;;;;;;38.50;55.10;;;;;;5032455;28;19928;-81
2022/06/15 07:26:36;;;;;;;;;;;38.50;55.00;;;;;;5026860;28;19932;-80
2022/06/15 07:29:03;;;;;;;;;;;38.30;53.80;;;;;;5035479;28;20016;-82
2022/06/15 07:31:32;;;;;;;;;;;37.90;54.60;;;;;;5021640;28;19925;-84
2022/06/15 07:34:00;;;;;;;;;;;37.60;54.80;;;;;;5039195;28;19932;-81
2022/06/15 07:36:27;;;;;;;;;;;37.70;55.20;;;;;;5013071;28;19951;-80
2022/06/15 07:38:54;;;;;;;;;;;37.80;54.60;;;;;;5033337;28;19952;-82
2022/06/15 07:41:22;;;;;;;;;;;37.70;53.80;;;;;;5041638;28;19924;-81
2022/06/15 07:43:51;;;;;;;;;;;37.40;53.10;;;;;;5016233;28;20331;-80
2022/06/15 07:46:18;;;;;;;;;;;36.80;54.00;;;;;;5027256;28;19933;-81
2022/06/15 07:51:48;;;;;;;;;;;36.60;53.60;;;;;;4956177;28;19926;-82
2022/06/15 07:54:16;;;;;;;;;;;36.40;54.90;;;;;;4955963;28;19922;-81
2022/06/15 07:56:43;;;;;;;;;;;36.20;54.30;;;;;;4996844;28;19932;-82
2022/06/15 07:59:11;;;;;;;;;;;36.00;54.10;;;;;;5006904;28;19929;-81
2022/06/15 08:01:38;;;;;;;;;;;36.10;54.90;;;;;;5013060;28;19921;-82
2022/06/15 08:04:05;;;;;;;;;;;36.30;53.60;;;;;;5042748;28;19921;-82
2022/06/15 08:06:33;;;;;;;;;;;36.00;53.80;;;;;;5022482;28;20019;-81
2022/06/15 08:09:01;;;;;;;;;;;35.60;53.90;;;;;;5020589;28;19925;-84
2022/06/15 08:11:28;;;;;;;;;;;35.40;54.00;;;;;;5020339;28;19970;-83
2022/06/15 08:13:55;;;;;;;;;;;35.40;54.80;;;;;;5018989;28;20515;-81
2022/06/15 08:16:22;;;;;;;;;;;35.30;53.80;;;;;;5032464;28;19971;-83
2022/06/15 08:18:51;;;;;;;;;;;35.00;54.80;;;;;;5013550;28;19940;-83
2022/06/15 08:21:21;;;;;;;;;;;34.60;55.20;;;;;;5028918;28;19924;-81
2022/06/15 08:23:50;;;;;;;;;;;34.60;55.50;;;;;;5008214;28;20392;-80
2022/06/15 08:26:21;;;;;;;;;;;34.20;54.80;;;;;;5024899;28;20018;-80
2022/06/15 08:28:49;;;;;;;;;;;34.10;55.60;;;;;;5024963;28;20079;-81
2022/06/15 08:31:16;;;;;;;;;;;34.30;54.40;;;;;;5018376;28;19920;-82
2022/06/15 08:33:43;;;;;;;;;;;34.30;55.00;;;;;;5029916;28;19935;-82
2022/06/15 08:36:11;;;;;;;;;;;34.00;54.60;;;;;;5011406;28;20002;-80
2022/06/15 08:38:38;;;;;;;;;;;33.90;55.40;;;;;;5026593;28;20543;-82
2022/06/15 08:41:07;;;;;;;;;;;33.40;55.00;;;;;;5003185;28;20511;-83
2022/06/15 08:43:41;;;;;;;;;;;33.40;55.50;;;;;;5023218;28;19967;-83
2022/06/15 08:46:11;;;;;;;;;;;33.30;55.80;;;;;;5030267;28;20308;-83
2022/06/15 08:48:44;;;;;;;;;;;32.90;55.60;;;;;;5014199;28;20340;-84
2022/06/15 08:51:15;;;;;;;;;;;32.40;55.90;;;;;;5008212;28;19944;-83
2022/06/15 08:53:45;;;;;;;;;;;32.40;56.50;;;;;;4999950;28;20385;-82
2022/06/15 08:56:14;;;;;;;;;;;32.10;57.10;;;;;;5024992;28;19932;-83
2022/06/15 08:58:45;;;;;;;;;;;32.00;57.80;;;;;;5011740;28;19937;-82
2022/06/15 09:01:16;;;;;;;;;;;32.30;57.10;;;;;;5010465;28;19948;-83
2022/06/15 09:03:48;;;;;;;;;;;32.40;57.80;;;;;;5000369;28;19936;-82
2022/06/15 09:06:21;;;;;;;;;;;32.60;57.60;;;;;;5018304;28;19917;-80
2022/06/15 09:09:03;;;;;;;;;;;31.70;56.60;;;;;;5014966;28;19909;-80
2022/06/15 09:11:36;;;;;;;;;;;32.50;57.60;;;;;;5032214;28;19930;-80
2022/06/15 09:14:09;;;;;;;;;;;32.60;56.90;;;;;;5038864;28;20226;-79
2022/06/15 09:16:42;;;;;;;;;;;32.60;56.80;;;;;;5036786;28;19933;-81
2022/06/15 09:19:11;;;;;;;;;;;32.40;57.50;;;;;;5017717;28;19935;-82
2022/06/15 09:21:41;;;;;;;;;;;32.30;57.10;;;;;;5013708;28;20016;-83
2022/06/15 09:24:09;;;;;;;;;;;32.20;56.10;;;;;;5019693;28;19931;-82
2022/06/15 09:26:38;;;;;;;;;;;31.80;57.50;;;;;;4995424;28;19941;-83
2022/06/15 09:29:11;;;;;;;;;;;31.40;57.40;;;;;;5000864;28;20451;-83
2022/06/15 09:31:41;;;;;;;;;;;31.20;57.80;;;;;;5019143;28;19928;-84
2022/06/15 09:34:09;;;;;;;;;;;31.00;58.50;;;;;;5022744;28;20044;-84
2022/06/15 09:36:38;;;;;;;;;;;31.00;59.10;;;;;;5000697;28;19925;-82
2022/06/15 09:39:05;;;;;;;;;;;30.90;58.30;;;;;;5022916;28;19944;-83
2022/06/15 09:41:37;;;;;;;;;;;30.90;58.90;;;;;;5004112;28;19929;-82
2022/06/15 09:44:16;;;;;;;;;;;30.60;58.70;;;;;;5018455;28;19944;-82
2022/06/15 09:46:47;;;;;;;;;;;30.30;59.30;;;;;;4999426;28;20368;-83
2022/06/15 09:49:22;;;;;;;;;;;30.30;59.80;;;;;;5022831;28;19929;-81
2022/06/15 09:51:55;;;;;;;;;;;30.30;59.70;;;;;;5023648;28;20032;-82
2022/06/15 09:54:29;;;;;;;;;;;30.10;59.60;;;;;;5025422;28;19940;-83
2022/06/15 09:56:56;;;;;;;;;;;30.20;60.10;;;;;;5029848;28;19929;-83
2022/06/15 09:59:26;;;;;;;;;;;30.20;59.70;;;;;;5014777;28;19932;-83
2022/06/15 10:01:53;;;;;;;;;;;30.00;59.50;;;;;;5008343;28;19972;-83
2022/06/15 10:04:21;;;;;;;;;;;29.80;59.70;;;;;;5011159;28;19927;-83
2022/06/15 10:06:51;;;;;;;;;;;28.60;59.60;;;;;;5015061;28;19925;-81
2022/06/15 10:09:19;;;;;;;;;;;29.00;60.40;;;;;;5013445;28;20144;-84
2022/06/15 10:11:47;;;;;;;;;;;28.50;61.00;;;;;;5022479;28;19921;-84
2022/06/15 10:14:18;;;;;;;;;;;28.10;62.10;;;;;;5039789;28;19979;-83
2022/06/15 10:16:51;;;;;;;;;;;27.70;62.80;;;;;;5011409;28;20780;-83
2022/06/15 10:19:18;;;;;;;;;;;27.00;63.80;;;;;;5032426;28;19920;-83
2022/06/15 10:21:51;;;;;;;;;;;26.60;65.00;;;;;;5020084;28;19928;-84
2022/06/15 10:24:20;;;;;;;;;;;26.30;64.90;;;;;;5032165;28;19925;-84
2022/06/15 10:26:48;;;;;;;;;;;26.10;66.00;;;;;;5013340;28;19965;-84
2022/06/15 10:29:26;;;;;;;;;;;26.00;66.50;;;;;;5013162;28;19936;-83
2022/06/15 10:32:16;;;;;;;;;;;24.40;65.50;;;;;;5025649;28;20332;-82
2022/06/15 10:34:52;;;;;;;;;;;25.90;66.60;;;;;;5025418;28;19925;-82
2022/06/15 10:37:20;;;;;;;;;;;26.00;67.60;;;;;;5023823;28;19925;-79
2022/06/15 10:39:48;;;;;;;;;;;26.00;67.10;;;;;;5021090;28;20388;-82
2022/06/15 10:42:19;;;;;;;;;;;26.00;67.00;;;;;;5018958;28;19948;-82
2022/06/15 10:44:51;;;;;;;;;;;26.20;67.50;;;;;;5008572;28;20320;-84
2022/06/15 10:47:22;;;;;;;;;;;26.10;67.20;;;;;;5022843;28;20019;-79
2022/06/15 10:49:51;;;;;;;;;;;26.10;66.90;;;;;;5015447;28;20007;-76
2022/06/15 10:52:28;;;;;;;;;;;26.30;66.20;;;;;;5007293;28;19960;-78
2022/06/15 11:03:48;;;;;;;;;;;26.60;66.30;;;;;;4966041;28;19975;-79
2022/06/15 11:06:15;;;;;;;;;;;26.70;66.00;;;;;;5007508;28;19925;-79
2022/06/15 11:08:43;;;;;;;;;;;26.60;66.10;;;;;;5025117;28;19936;-78
2022/06/15 11:11:12;;;;;;;;;;;26.70;65.80;;;;;;5038206;28;19931;-81
2022/06/15 11:13:40;;;;;;;;;;;26.70;66.40;;;;;;5022584;28;19925;-79
2022/06/15 11:19:10;;;;;;;;;;;26.90;66.50;;;;;;5035666;28;20102;-79
2022/06/15 11:21:40;;;;;;;;;;;27.00;66.60;;;;;;5012021;28;19955;-79
2022/06/15 11:24:12;;;;;;;;;;;27.10;66.70;;;;;;5030067;28;19922;-80
2022/06/15 11:26:55;;;;;;;;;;;27.10;65.70;;;;;;5004447;28;19933;-79
2022/06/15 11:29:32;;;;;;;;;;;27.10;66.00;;;;;;5021768;28;20078;-78
2022/06/15 11:32:02;;;;;;;;;;;26.50;66.20;;;;;;5002609;28;20419;-80
2022/06/15 11:34:33;;;;;;;;;;;27.40;66.10;;;;;;5023330;28;20010;-80
2022/06/15 11:37:04;;;;;;;;;;;27.40;65.70;;;;;;5023780;28;19929;-78
2022/06/15 11:39:33;;;;;;;;;;;27.50;65.50;;;;;;5003499;28;19933;-79
2022/06/15 11:42:00;;;;;;;;;;;27.70;66.10;;;;;;5004698;28;20306;-79
2022/06/15 11:44:28;;;;;;;;;;;27.90;65.80;;;;;;5025906;28;19929;-79
2022/06/15 11:47:06;;;;;;;;;;;28.10;66.00;;;;;;5033539;28;19959;-78
2022/06/15 11:49:40;;;;;;;;;;;28.30;65.30;;;;;;5041048;28;19929;-81
2022/06/15 11:52:16;;;;;;;;;;;28.30;65.00;;;;;;5015916;28;20970;-81
2022/06/15 11:54:51;;;;;;;;;;;28.30;64.80;;;;;;5032899;28;19921;-80
2022/06/15 11:57:22;;;;;;;;;;;28.40;65.00;;;;;;5016110;28;19924;-78
2022/06/15 11:59:54;;;;;;;;;;;28.40;64.40;;;;;;5013485;28;19968;-79
2022/06/15 12:02:26;;;;;;;;;;;28.30;63.90;;;;;;5024534;28;20614;-78
2022/06/15 12:05:08;;;;;;;;;;;28.30;64.10;;;;;;5015802;28;19969;-78
2022/06/15 12:07:38;;;;;;;;;;;28.50;64.40;;;;;;4996860;28;20428;-79
2022/06/15 12:10:11;;;;;;;;;;;28.50;63.70;;;;;;5016450;28;19925;-78
2022/06/15 12:12:42;;;;;;;;;;;28.80;64.40;;;;;;5007864;28;19929;-78
2022/06/15 12:15:35;;;;;;;;;;;28.80;63.50;;;;;;5011828;28;19948;-78
2022/06/15 12:18:07;;;;;;;;;;;28.80;64.00;;;;;;5011149;28;19931;-78
2022/06/15 12:20:41;;;;;;;;;;;28.90;62.90;;;;;;5019917;28;19965;-78
2022/06/15 12:23:12;;;;;;;;;;;29.10;62.30;;;;;;4998368;28;20414;-78
2022/06/15 12:25:41;;;;;;;;;;;28.90;61.90;;;;;;5026921;28;19921;-78
2022/06/15 12:28:12;;;;;;;;;;;29.30;62.10;;;;;;5026986;28;19962;-78
2022/06/15 12:30:41;;;;;;;;;;;29.50;61.50;;;;;;5030602;28;19936;-78
2022/06/15 12:33:28;;;;;;;;;;;29.60;60.60;;;;;;5016890;28;19924;-78
2022/06/15 12:36:02;;;;;;;;;;;29.80;60.50;;;;;;5029916;28;19925;-79
2022/06/15 12:38:31;;;;;;;;;;;29.80;59.90;;;;;;5027701;28;19932;-78
2022/06/15 12:41:02;;;;;;;;;;;29.80;59.40;;;;;;5018938;28;19968;-78
2022/06/15 12:43:32;;;;;;;;;;;29.80;59.80;;;;;;5021563;28;19929;-81
2022/06/15 12:46:03;;;;;;;;;;;29.80;59.90;;;;;;5006729;28;20448;-77
2022/06/15 12:48:35;;;;;;;;;;;29.90;60.40;;;;;;5029249;28;19931;-79
2022/06/15 12:51:06;;;;;;;;;;;29.90;61.90;;;;;;5008525;28;19958;-79
2022/06/15 12:53:38;;;;;;;;;;;29.90;60.70;;;;;;5007549;28;20458;-79
2022/06/15 12:56:08;;;;;;;;;;;30.00;61.20;;;;;;5041020;28;20499;-77
2022/06/15 12:58:41;;;;;;;;;;;30.00;60.40;;;;;;5020464;28;20377;-78
2022/06/15 13:01:11;;;;;;;;;;;30.10;60.00;;;;;;5009812;28;19925;-80
2022/06/15 13:03:59;;;;;;;;;;;30.00;59.40;;;;;;5023523;28;19947;-84
2022/06/15 13:06:29;;;;;;;;;;;30.00;59.70;;;;;;5025906;28;20531;-80
2022/06/15 13:09:00;;;;;;;;;;;30.10;59.50;;;;;;5038828;28;19928;-79
2022/06/15 13:11:29;;;;;;;;;;;30.20;58.80;;;;;;5013260;28;19976;-77
2022/06/15 13:14:10;;;;;;;;;;;30.10;59.40;;;;;;5006806;28;19937;-78
2022/06/15 13:16:37;;;;;;;;;;;30.10;58.80;;;;;;5008376;28;19936;-80
2022/06/15 13:19:07;;;;;;;;;;;30.00;59.30;;;;;;5027162;28;20424;-80
2022/06/15 13:24:28;;;;;;;;;;;30.20;59.50;;;;;;5089893;27;19916;-74
2022/06/15 13:26:57;;;;;;;;;;;30.20;60.20;;;;;;5084064;28;19978;-75
2022/06/15 13:29:26;;;;;;;;;;;30.20;60.20;;;;;;5096714;28;19971;-75
2022/06/15 13:31:54;;;;;;;;;;;30.20;59.80;;;;;;5085394;28;19939;-76
2022/06/15 13:34:35;;;;;;;;;;;30.30;60.60;;;;;;5079227;28;19986;-75
2022/06/15 13:37:13;;;;;;;;;;;30.40;60.20;;;;;;5077010;28;20407;-76
2022/06/15 13:39:54;;;;;;;;;;;30.40;59.60;;;;;;5085331;28;19930;-75
2022/06/15 13:42:23;;;;;;;;;;;30.40;59.80;;;;;;5095695;28;19928;-76
2022/06/15 13:44:50;;;;;;;;;;;30.50;59.70;;;;;;5088388;28;20378;-76
2022/06/15 13:47:18;;;;;;;;;;;30.60;60.10;;;;;;5086833;28;19928;-76
2022/06/15 13:49:46;;;;;;;;;;;30.70;60.90;;;;;;5093486;28;19927;-76
2022/06/15 13:52:16;;;;;;;;;;;30.90;60.30;;;;;;5086454;28;19928;-76
2022/06/15 13:55:01;;;;;;;;;;;31.20;59.90;;;;;;5101574;28;20379;-75
2022/06/15 13:57:40;;;;;;;;;;;31.60;59.70;;;;;;5091271;28;19939;-75
2022/06/15 14:00:12;;;;;;;;;;;31.60;59.30;;;;;;5088129;28;20312;-76
2022/06/15 14:02:47;;;;;;;;;;;31.70;59.00;;;;;;5084048;28;19931;-74
2022/06/15 14:05:28;;;;;;;;;;;31.90;58.20;;;;;;5097268;28;20045;-76
2022/06/15 14:08:06;;;;;;;;;;;31.70;58.00;;;;;;5055280;28;20322;-76
2022/06/15 14:10:42;;;;;;;;;;;31.60;58.10;;;;;;5080981;28;19929;-77
2022/06/15 14:13:23;;;;;;;;;;;31.50;58.20;;;;;;5079857;28;19928;-77
2022/06/15 14:15:58;;;;;;;;;;;31.50;58.70;;;;;;5082218;28;19967;-77
2022/06/15 14:18:35;;;;;;;;;;;31.50;58.80;;;;;;5064611;28;19933;-75
2022/06/15 14:21:11;;;;;;;;;;;31.50;59.10;;;;;;5080910;28;19925;-75
2022/06/15 14:23:38;;;;;;;;;;;31.60;59.20;;;;;;5081077;28;19983;-74
2022/06/15 14:26:08;;;;;;;;;;;31.50;59.00;;;;;;5081010;28;19931;-75
2022/06/15 14:28:36;;;;;;;;;;;31.50;59.40;;;;;;5082404;28;20331;-75
2022/06/15 14:31:04;;;;;;;;;;;31.60;59.50;;;;;;5097727;28;20530;-75
2022/06/15 14:33:31;;;;;;;;;;;31.50;58.90;;;;;;5087296;28;20028;-74
2022/06/15 14:36:00;;;;;;;;;;;31.50;59.00;;;;;;5067067;28;19932;-75
2022/06/15 14:38:29;;;;;;;;;;;31.60;58.50;;;;;;5070164;28;19982;-76
2022/06/15 14:41:10;;;;;;;;;;;31.50;58.60;;;;;;5078405;28;20029;-74
2022/06/15 14:43:37;;;;;;;;;;;31.40;59.40;;;;;;5079304;28;20237;-75
2022/06/15 14:46:04;;;;;;;;;;;31.40;59.10;;;;;;5060423;28;19929;-75
2022/06/15 14:48:33;;;;;;;;;;;31.50;59.30;;;;;;5077257;28;19997;-75
2022/06/15 14:51:07;;;;;;;;;;;31.50;58.70;;;;;;5076494;28;19940;-75
2022/06/15 14:53:36;;;;;;;;;;;31.50;58.40;;;;;;5070837;28;19956;-75
2022/06/15 14:56:04;;;;;;;;;;;31.60;58.60;;;;;;5063888;28;19936;-76